Latest METAR for ESKM

Raw:

2022/05/23 00:50 ESKM 230050Z AUTO 00000KT 0550 R16/P2000D R34/P2000N FG NCD 04/04 Q1012

Decoded:
Siljan / Mora, Sweden (ESKM) 60-58N 014-31E
May 22, 2022 - 08:50 PM EDT / 2022.05.23 0050 UTC
Wind: Calm:0
Visibility: less than 1 mile:0
Weather: fog
Temperature: 39 F (4 C)
Dew Point: 39 F (4 C)
Relative Humidity: 100%
Pressure (altimeter): 29.88 in. Hg (1012 hPa)
ob: ESKM 230050Z AUTO 00000KT 0550 R16/P2000D R34/P2000N FG NCD 04/04 Q1012
cycle: 1

Back